Terminal Aerodrome Forecast
Issued by NWS

Home | Current Version | Previous Version | Text Only | Print | Product List | Glossary On
Versions: 1 2 3 4 5 6 7 8 9 10 11 12 13 14 15 16 17 18 19 20
000
FTUS43 KAPX 031120
TAFTVC
TAF
KTVC 031120Z 0312/0412 VRB05KT P6SM VCTS SCT018 BKN040CB OVC070
      TEMPO 0312/0314 2SM TSRA BR BKN018 OVC040CB
     FM031400 07005KT P6SM VCSH BKN035 BKN120
     FM040000 VRB03KT P6SM VCSH SCT040 BKN080=

USA.gov is the U.S. government's official web portal to all federal, state and local government web resources and services.